sensor_id;sensor_type;location;lat;lon;timestamp;pressure;altitude;pressure_sealevel;temperature;humidity
61814;BME280;57055;-35.296;149.168;2023-06-26T00:01:50;94954.32;;;6.46;62.69
61814;BME280;57055;-35.296;149.168;2023-06-26T00:04:18;94947.08;;;6.63;62.08
61814;BME280;57055;-35.296;149.168;2023-06-26T00:06:47;94936.62;;;6.45;61.95
61814;BME280;57055;-35.296;149.168;2023-06-26T00:09:16;94943.08;;;6.76;61.82
61814;BME280;57055;-35.296;149.168;2023-06-26T00:11:45;94941.42;;;6.63;61.89
61814;BME280;57055;-35.296;149.168;2023-06-26T00:14:14;94943.50;;;6.64;62.05
61814;BME280;57055;-35.296;149.168;2023-06-26T00:16:42;94946.06;;;6.87;61.99
61814;BME280;57055;-35.296;149.168;2023-06-26T00:19:11;94945.90;;;6.97;62.19
61814;BME280;57055;-35.296;149.168;2023-06-26T00:21:40;94936.00;;;6.90;62.19
61814;BME280;57055;-35.296;149.168;2023-06-26T00:24:09;94939.16;;;6.67;62.58
61814;BME280;57055;-35.296;149.168;2023-06-26T00:26:38;94937.31;;;6.82;62.48
61814;BME280;57055;-35.296;149.168;2023-06-26T00:29:06;94939.82;;;6.77;62.03
61814;BME280;57055;-35.296;149.168;2023-06-26T00:31:35;94932.59;;;6.81;61.97
61814;BME280;57055;-35.296;149.168;2023-06-26T00:34:04;94935.46;;;7.01;61.94
61814;BME280;57055;-35.296;149.168;2023-06-26T00:36:33;94937.22;;;6.66;62.05
61814;BME280;57055;-35.296;149.168;2023-06-26T00:39:02;94943.66;;;6.86;61.97
61814;BME280;57055;-35.296;149.168;2023-06-26T00:41:30;94943.31;;;6.96;61.59
61814;BME280;57055;-35.296;149.168;2023-06-26T00:43:59;94946.57;;;7.22;61.81
61814;BME280;57055;-35.296;149.168;2023-06-26T00:46:29;94937.47;;;7.09;61.62
61814;BME280;57055;-35.296;149.168;2023-06-26T00:49:00;94933.14;;;7.20;61.85
61814;BME280;57055;-35.296;149.168;2023-06-26T00:51:30;94929.22;;;6.99;61.83
61814;BME280;57055;-35.296;149.168;2023-06-26T00:54:00;94929.63;;;6.95;62.08
61814;BME280;57055;-35.296;149.168;2023-06-26T00:56:29;94930.36;;;6.96;62.21
61814;BME280;57055;-35.296;149.168;2023-06-26T00:59:00;94923.73;;;6.73;61.99
61814;BME280;57055;-35.296;149.168;2023-06-26T01:01:29;94935.31;;;7.03;61.69
61814;BME280;57055;-35.296;149.168;2023-06-26T01:03:58;94925.90;;;7.02;62.04
61814;BME280;57055;-35.296;149.168;2023-06-26T01:06:29;94916.95;;;7.12;62.05
61814;BME280;57055;-35.296;149.168;2023-06-26T01:08:59;94921.41;;;7.19;61.86
61814;BME280;57055;-35.296;149.168;2023-06-26T01:11:28;94921.65;;;7.06;61.29
61814;BME280;57055;-35.296;149.168;2023-06-26T01:13:57;94919.85;;;7.30;60.98
61814;BME280;57055;-35.296;149.168;2023-06-26T01:16:29;94918.90;;;7.28;61.06
61814;BME280;57055;-35.296;149.168;2023-06-26T01:18:59;94923.34;;;7.11;61.26
61814;BME280;57055;-35.296;149.168;2023-06-26T01:21:29;94916.11;;;7.40;61.39
61814;BME280;57055;-35.296;149.168;2023-06-26T01:24:05;94922.45;;;7.19;61.63
61814;BME280;57055;-35.296;149.168;2023-06-26T01:26:36;94915.62;;;7.44;61.60
61814;BME280;57055;-35.296;149.168;2023-06-26T01:29:08;94911.37;;;7.30;61.72
61814;BME280;57055;-35.296;149.168;2023-06-26T01:31:38;94916.21;;;7.54;61.93
61814;BME280;57055;-35.296;149.168;2023-06-26T01:34:08;94914.73;;;7.57;61.80
61814;BME280;57055;-35.296;149.168;2023-06-26T01:36:37;94909.64;;;7.61;61.99
61814;BME280;57055;-35.296;149.168;2023-06-26T01:39:06;94912.34;;;7.33;61.89
61814;BME280;57055;-35.296;149.168;2023-06-26T01:41:35;94917.95;;;7.36;62.01
61814;BME280;57055;-35.296;149.168;2023-06-26T01:44:17;94918.76;;;7.64;61.65
61814;BME280;57055;-35.296;149.168;2023-06-26T01:46:55;94912.43;;;7.62;61.39
61814;BME280;57055;-35.296;149.168;2023-06-26T01:49:36;94905.38;;;7.26;61.07
61814;BME280;57055;-35.296;149.168;2023-06-26T01:52:16;94902.81;;;7.54;61.01
61814;BME280;57055;-35.296;149.168;2023-06-26T01:54:54;94890.78;;;7.33;61.16
61814;BME280;57055;-35.296;149.168;2023-06-26T01:57:27;94892.56;;;7.22;61.08
61814;BME280;57055;-35.296;149.168;2023-06-26T01:59:57;94884.13;;;7.43;60.59
61814;BME280;57055;-35.296;149.168;2023-06-26T02:02:27;94888.17;;;7.87;60.61
61814;BME280;57055;-35.296;149.168;2023-06-26T02:04:57;94893.20;;;7.69;59.90
61814;BME280;57055;-35.296;149.168;2023-06-26T02:07:25;94882.85;;;7.58;59.76
61814;BME280;57055;-35.296;149.168;2023-06-26T02:09:54;94887.48;;;7.62;59.42
61814;BME280;57055;-35.296;149.168;2023-06-26T02:12:23;94887.82;;;7.48;59.82
61814;BME280;57055;-35.296;149.168;2023-06-26T02:14:52;94888.47;;;7.81;59.77
61814;BME280;57055;-35.296;149.168;2023-06-26T02:17:20;94877.00;;;7.58;59.65
61814;BME280;57055;-35.296;149.168;2023-06-26T02:19:49;94879.87;;;7.95;59.68
61814;BME280;57055;-35.296;149.168;2023-06-26T02:22:18;94874.57;;;7.99;59.80
61814;BME280;57055;-35.296;149.168;2023-06-26T02:24:47;94876.42;;;7.77;59.69
61814;BME280;57055;-35.296;149.168;2023-06-26T02:27:16;94871.67;;;7.92;59.24
61814;BME280;57055;-35.296;149.168;2023-06-26T02:29:46;94866.85;;;8.00;58.85
61814;BME280;57055;-35.296;149.168;2023-06-26T02:32:15;94876.00;;;8.02;58.77
61814;BME280;57055;-35.296;149.168;2023-06-26T02:34:43;94868.95;;;7.93;58.45
61814;BME280;57055;-35.296;149.168;2023-06-26T02:37:12;94861.20;;;8.12;58.18
61814;BME280;57055;-35.296;149.168;2023-06-26T02:39:41;94884.83;;;7.89;57.89
61814;BME280;57055;-35.296;149.168;2023-06-26T02:42:10;94872.86;;;7.84;57.78
61814;BME280;57055;-35.296;149.168;2023-06-26T02:44:38;94863.14;;;7.82;57.14
61814;BME280;57055;-35.296;149.168;2023-06-26T02:47:07;94861.78;;;8.13;57.04
61814;BME280;57055;-35.296;149.168;2023-06-26T02:49:36;94862.85;;;8.14;57.35
61814;BME280;57055;-35.296;149.168;2023-06-26T02:52:05;94861.20;;;8.02;57.31
61814;BME280;57055;-35.296;149.168;2023-06-26T02:54:34;94855.85;;;8.11;56.90
61814;BME280;57055;-35.296;149.168;2023-06-26T02:57:03;94854.16;;;8.08;56.63
61814;BME280;57055;-35.296;149.168;2023-06-26T02:59:32;94852.53;;;7.99;56.69
61814;BME280;57055;-35.296;149.168;2023-06-26T03:02:02;94838.64;;;8.10;56.78
61814;BME280;57055;-35.296;149.168;2023-06-26T03:04:31;94832.84;;;8.19;56.79
61814;BME280;57055;-35.296;149.168;2023-06-26T03:07:00;94830.60;;;8.39;55.64
61814;BME280;57055;-35.296;149.168;2023-06-26T03:09:29;94818.24;;;8.25;55.46
61814;BME280;57055;-35.296;149.168;2023-06-26T03:11:57;94824.89;;;8.41;55.31
61814;BME280;57055;-35.296;149.168;2023-06-26T03:14:26;94820.17;;;8.52;54.99
61814;BME280;57055;-35.296;149.168;2023-06-26T03:16:55;94819.29;;;8.64;54.91
61814;BME280;57055;-35.296;149.168;2023-06-26T03:19:24;94809.43;;;8.51;53.96
61814;BME280;57055;-35.296;149.168;2023-06-26T03:21:53;94809.94;;;8.57;52.97
61814;BME280;57055;-35.296;149.168;2023-06-26T03:24:22;94798.77;;;8.64;53.41
61814;BME280;57055;-35.296;149.168;2023-06-26T03:26:51;94801.50;;;8.61;53.09
61814;BME280;57055;-35.296;149.168;2023-06-26T03:29:19;94817.81;;;8.73;52.59
61814;BME280;57055;-35.296;149.168;2023-06-26T03:31:48;94806.43;;;8.64;52.56
61814;BME280;57055;-35.296;149.168;2023-06-26T03:34:17;94797.94;;;8.70;52.62
61814;BME280;57055;-35.296;149.168;2023-06-26T03:36:46;94792.90;;;8.46;52.15
61814;BME280;57055;-35.296;149.168;2023-06-26T03:39:14;94792.84;;;8.40;51.83
61814;BME280;57055;-35.296;149.168;2023-06-26T03:41:43;94790.08;;;8.44;52.19
61814;BME280;57055;-35.296;149.168;2023-06-26T03:44:12;94784.01;;;8.42;52.65
61814;BME280;57055;-35.296;149.168;2023-06-26T03:46:40;94787.25;;;8.55;52.31
61814;BME280;57055;-35.296;149.168;2023-06-26T03:49:09;94781.66;;;8.40;51.90
61814;BME280;57055;-35.296;149.168;2023-06-26T03:51:38;94790.47;;;8.58;51.87
61814;BME280;57055;-35.296;149.168;2023-06-26T03:54:07;94776.21;;;8.17;52.24
61814;BME280;57055;-35.296;149.168;2023-06-26T03:56:36;94790.12;;;8.26;52.63
61814;BME280;57055;-35.296;149.168;2023-06-26T03:59:04;94794.53;;;8.20;52.50
61814;BME280;57055;-35.296;149.168;2023-06-26T04:01:33;94778.12;;;8.12;52.93
61814;BME280;57055;-35.296;149.168;2023-06-26T04:04:02;94786.38;;;8.10;52.85
61814;BME280;57055;-35.296;149.168;2023-06-26T04:06:31;94770.84;;;8.34;52.95
61814;BME280;57055;-35.296;149.168;2023-06-26T04:09:00;94786.69;;;8.05;53.03
61814;BME280;57055;-35.296;149.168;2023-06-26T04:11:29;94787.30;;;8.02;53.47
61814;BME280;57055;-35.296;149.168;2023-06-26T04:13:58;94793.60;;;7.95;53.66
61814;BME280;57055;-35.296;149.168;2023-06-26T04:16:27;94787.86;;;7.96;53.80
61814;BME280;57055;-35.296;149.168;2023-06-26T04:18:55;94789.36;;;7.92;54.02
61814;BME280;57055;-35.296;149.168;2023-06-26T04:21:25;94788.45;;;7.87;53.87
61814;BME280;57055;-35.296;149.168;2023-06-26T04:23:54;94787.11;;;7.92;54.13
61814;BME280;57055;-35.296;149.168;2023-06-26T04:26:22;94796.69;;;7.78;54.02
61814;BME280;57055;-35.296;149.168;2023-06-26T04:28:51;94834.71;;;8.05;53.89
61814;BME280;57055;-35.296;149.168;2023-06-26T04:31:20;94810.81;;;7.78;53.61
61814;BME280;57055;-35.296;149.168;2023-06-26T04:33:49;94819.71;;;7.94;54.05
61814;BME280;57055;-35.296;149.168;2023-06-26T04:36:18;94820.34;;;7.88;54.68
61814;BME280;57055;-35.296;149.168;2023-06-26T04:38:46;94822.92;;;7.82;55.18
61814;BME280;57055;-35.296;149.168;2023-06-26T04:41:15;94822.24;;;7.59;55.11
61814;BME280;57055;-35.296;149.168;2023-06-26T04:43:44;94828.99;;;8.08;55.10
61814;BME280;57055;-35.296;149.168;2023-06-26T04:46:12;94819.02;;;7.99;55.63
61814;BME280;57055;-35.296;149.168;2023-06-26T04:48:41;94828.47;;;7.56;55.20
61814;BME280;57055;-35.296;149.168;2023-06-26T04:51:10;94826.14;;;7.76;55.18
61814;BME280;57055;-35.296;149.168;2023-06-26T04:53:39;94835.06;;;7.59;55.23
61814;BME280;57055;-35.296;149.168;2023-06-26T04:56:07;94835.59;;;7.68;55.36
61814;BME280;57055;-35.296;149.168;2023-06-26T04:58:36;94854.32;;;7.90;55.01
61814;BME280;57055;-35.296;149.168;2023-06-26T05:01:05;94850.70;;;7.51;55.42
61814;BME280;57055;-35.296;149.168;2023-06-26T05:03:34;94841.25;;;7.80;55.47
61814;BME280;57055;-35.296;149.168;2023-06-26T05:06:03;94837.74;;;7.52;55.39
61814;BME280;57055;-35.296;149.168;2023-06-26T05:08:32;94840.25;;;7.68;55.93
61814;BME280;57055;-35.296;149.168;2023-06-26T05:11:01;94847.47;;;7.40;56.02
61814;BME280;57055;-35.296;149.168;2023-06-26T05:13:30;94848.42;;;7.32;56.35
61814;BME280;57055;-35.296;149.168;2023-06-26T05:15:59;94847.05;;;7.26;56.69
61814;BME280;57055;-35.296;149.168;2023-06-26T05:18:27;94839.64;;;7.18;56.66
61814;BME280;57055;-35.296;149.168;2023-06-26T05:20:57;94838.47;;;7.43;56.71
61814;BME280;57055;-35.296;149.168;2023-06-26T05:23:26;94850.77;;;7.38;56.91
61814;BME280;57055;-35.296;149.168;2023-06-26T05:25:56;94847.11;;;7.25;57.30
61814;BME280;57055;-35.296;149.168;2023-06-26T05:28:26;94862.80;;;7.51;57.50
61814;BME280;57055;-35.296;149.168;2023-06-26T05:30:55;94865.00;;;7.54;57.33
61814;BME280;57055;-35.296;149.168;2023-06-26T05:33:26;94869.43;;;7.29;57.14
61814;BME280;57055;-35.296;149.168;2023-06-26T05:35:55;94855.88;;;7.26;57.19
61814;BME280;57055;-35.296;149.168;2023-06-26T05:38:25;94860.38;;;7.32;56.47
61814;BME280;57055;-35.296;149.168;2023-06-26T05:40:55;94860.01;;;7.29;56.17
61814;BME280;57055;-35.296;149.168;2023-06-26T05:43:24;94862.41;;;7.07;56.00
61814;BME280;57055;-35.296;149.168;2023-06-26T05:45:53;94858.76;;;7.33;55.98
61814;BME280;57055;-35.296;149.168;2023-06-26T05:48:22;94861.50;;;7.54;55.96
61814;BME280;57055;-35.296;149.168;2023-06-26T05:50:51;94865.04;;;7.22;56.34
61814;BME280;57055;-35.296;149.168;2023-06-26T05:53:21;94863.53;;;7.41;56.55
61814;BME280;57055;-35.296;149.168;2023-06-26T05:55:51;94862.97;;;7.36;56.78
61814;BME280;57055;-35.296;149.168;2023-06-26T05:58:21;94878.29;;;7.34;56.80
61814;BME280;57055;-35.296;149.168;2023-06-26T06:00:52;94863.15;;;7.33;56.80
61814;BME280;57055;-35.296;149.168;2023-06-26T06:03:21;94870.26;;;7.22;57.02
61814;BME280;57055;-35.296;149.168;2023-06-26T06:05:50;94862.79;;;7.09;56.94
61814;BME280;57055;-35.296;149.168;2023-06-26T06:08:19;94863.21;;;7.26;57.12
61814;BME280;57055;-35.296;149.168;2023-06-26T06:10:48;94862.90;;;6.97;57.28
61814;BME280;57055;-35.296;149.168;2023-06-26T06:13:17;94878.51;;;7.11;57.36
61814;BME280;57055;-35.296;149.168;2023-06-26T06:15:46;94872.19;;;7.08;57.53
61814;BME280;57055;-35.296;149.168;2023-06-26T06:18:15;94873.56;;;7.06;57.50
61814;BME280;57055;-35.296;149.168;2023-06-26T06:20:44;94885.32;;;6.99;57.61
61814;BME280;57055;-35.296;149.168;2023-06-26T06:23:13;94900.10;;;7.07;57.35
61814;BME280;57055;-35.296;149.168;2023-06-26T06:25:42;94906.59;;;7.17;57.68
61814;BME280;57055;-35.296;149.168;2023-06-26T06:28:11;94907.58;;;6.94;57.83
61814;BME280;57055;-35.296;149.168;2023-06-26T06:30:39;94909.68;;;6.91;57.94
61814;BME280;57055;-35.296;149.168;2023-06-26T06:33:08;94899.41;;;6.81;58.16
61814;BME280;57055;-35.296;149.168;2023-06-26T06:35:37;94913.69;;;6.57;58.21
61814;BME280;57055;-35.296;149.168;2023-06-26T06:38:06;94911.11;;;7.12;57.84
61814;BME280;57055;-35.296;149.168;2023-06-26T06:40:35;94922.14;;;6.76;57.96
61814;BME280;57055;-35.296;149.168;2023-06-26T06:43:03;94924.33;;;6.78;56.94
61814;BME280;57055;-35.296;149.168;2023-06-26T06:45:32;94920.59;;;6.97;55.64
61814;BME280;57055;-35.296;149.168;2023-06-26T06:48:01;94935.77;;;6.95;54.71
61814;BME280;57055;-35.296;149.168;2023-06-26T06:50:30;94937.29;;;6.88;54.62
61814;BME280;57055;-35.296;149.168;2023-06-26T06:52:58;94942.03;;;6.85;53.82
61814;BME280;57055;-35.296;149.168;2023-06-26T06:55:27;94946.95;;;6.84;53.25
61814;BME280;57055;-35.296;149.168;2023-06-26T06:57:56;94966.04;;;6.86;52.59
61814;BME280;57055;-35.296;149.168;2023-06-26T07:00:25;94954.00;;;6.86;52.24
61814;BME280;57055;-35.296;149.168;2023-06-26T07:02:54;94957.69;;;6.77;52.58
61814;BME280;57055;-35.296;149.168;2023-06-26T07:05:23;94969.70;;;6.55;52.59
61814;BME280;57055;-35.296;149.168;2023-06-26T07:07:51;94980.67;;;6.79;52.50
61814;BME280;57055;-35.296;149.168;2023-06-26T07:10:20;94994.08;;;6.59;52.10
61814;BME280;57055;-35.296;149.168;2023-06-26T07:12:49;94994.16;;;6.75;52.18
61814;BME280;57055;-35.296;149.168;2023-06-26T07:15:18;94997.78;;;6.53;52.25
61814;BME280;57055;-35.296;149.168;2023-06-26T07:17:46;94989.20;;;6.51;52.07
61814;BME280;57055;-35.296;149.168;2023-06-26T07:20:15;95000.79;;;6.82;51.92
61814;BME280;57055;-35.296;149.168;2023-06-26T07:22:44;95004.38;;;6.56;51.56
61814;BME280;57055;-35.296;149.168;2023-06-26T07:25:14;95000.42;;;6.72;51.64
61814;BME280;57055;-35.296;149.168;2023-06-26T07:27:43;95008.17;;;6.65;51.90
61814;BME280;57055;-35.296;149.168;2023-06-26T07:30:12;95008.09;;;6.46;51.83
61814;BME280;57055;-35.296;149.168;2023-06-26T07:32:41;95014.79;;;6.48;51.55
61814;BME280;57055;-35.296;149.168;2023-06-26T07:35:10;95023.48;;;6.73;51.71
61814;BME280;57055;-35.296;149.168;2023-06-26T07:37:39;95031.46;;;6.70;51.87
61814;BME280;57055;-35.296;149.168;2023-06-26T07:40:08;95026.36;;;6.64;51.95
61814;BME280;57055;-35.296;149.168;2023-06-26T07:42:37;95037.67;;;6.47;51.80
61814;BME280;57055;-35.296;149.168;2023-06-26T07:45:06;95042.02;;;6.48;51.72
61814;BME280;57055;-35.296;149.168;2023-06-26T07:47:35;95053.95;;;6.67;51.82
61814;BME280;57055;-35.296;149.168;2023-06-26T07:50:05;95051.67;;;6.65;52.15
61814;BME280;57055;-35.296;149.168;2023-06-26T07:52:34;95057.54;;;6.38;52.57
61814;BME280;57055;-35.296;149.168;2023-06-26T07:55:03;95058.80;;;6.35;52.73
61814;BME280;57055;-35.296;149.168;2023-06-26T07:57:32;95073.42;;;6.43;52.94
61814;BME280;57055;-35.296;149.168;2023-06-26T08:00:01;95080.43;;;6.66;53.15
61814;BME280;57055;-35.296;149.168;2023-06-26T08:02:30;95085.98;;;6.73;53.29
61814;BME280;57055;-35.296;149.168;2023-06-26T08:04:59;95090.16;;;6.68;53.57
61814;BME280;57055;-35.296;149.168;2023-06-26T08:07:27;95079.73;;;6.49;53.67
61814;BME280;57055;-35.296;149.168;2023-06-26T08:09:57;95082.00;;;6.68;53.93
61814;BME280;57055;-35.296;149.168;2023-06-26T08:12:26;95081.67;;;6.51;54.03
61814;BME280;57055;-35.296;149.168;2023-06-26T08:14:55;95095.75;;;6.56;54.14
61814;BME280;57055;-35.296;149.168;2023-06-26T08:17:24;95095.66;;;6.70;54.33
61814;BME280;57055;-35.296;149.168;2023-06-26T08:19:52;95106.28;;;6.46;54.46
61814;BME280;57055;-35.296;149.168;2023-06-26T08:22:21;95100.27;;;6.69;54.55
61814;BME280;57055;-35.296;149.168;2023-06-26T08:24:50;95107.63;;;6.63;54.74
61814;BME280;57055;-35.296;149.168;2023-06-26T08:27:19;95113.91;;;6.43;54.49
61814;BME280;57055;-35.296;149.168;2023-06-26T08:29:48;95109.88;;;6.55;53.90
61814;BME280;57055;-35.296;149.168;2023-06-26T08:32:16;95100.12;;;6.65;54.15
61814;BME280;57055;-35.296;149.168;2023-06-26T08:34:45;95103.05;;;6.37;54.26
61814;BME280;57055;-35.296;149.168;2023-06-26T08:37:14;95103.21;;;6.55;54.25
61814;BME280;57055;-35.296;149.168;2023-06-26T08:39:43;95087.75;;;6.62;53.85
61814;BME280;57055;-35.296;149.168;2023-06-26T08:42:12;95094.63;;;6.63;53.36
61814;BME280;57055;-35.296;149.168;2023-06-26T08:44:40;95101.10;;;6.89;53.54
61814;BME280;57055;-35.296;149.168;2023-06-26T08:47:11;95100.59;;;6.65;52.88
61814;BME280;57055;-35.296;149.168;2023-06-26T08:49:46;95093.35;;;6.38;52.90
61814;BME280;57055;-35.296;149.168;2023-06-26T08:52:23;95097.50;;;6.64;52.98
61814;BME280;57055;-35.296;149.168;2023-06-26T08:54:58;95103.85;;;6.41;52.84
61814;BME280;57055;-35.296;149.168;2023-06-26T08:57:28;95112.77;;;6.33;53.02
61814;BME280;57055;-35.296;149.168;2023-06-26T08:59:59;95108.59;;;6.80;52.84
61814;BME280;57055;-35.296;149.168;2023-06-26T09:02:29;95109.11;;;6.50;52.61
61814;BME280;57055;-35.296;149.168;2023-06-26T09:04:58;95124.18;;;6.51;52.39
61814;BME280;57055;-35.296;149.168;2023-06-26T09:07:27;95120.52;;;6.57;51.58
61814;BME280;57055;-35.296;149.168;2023-06-26T09:09:57;95131.57;;;6.58;51.44
61814;BME280;57055;-35.296;149.168;2023-06-26T09:12:27;95120.17;;;6.30;51.68
61814;BME280;57055;-35.296;149.168;2023-06-26T09:14:56;95115.90;;;6.29;51.43
61814;BME280;57055;-35.296;149.168;2023-06-26T09:17:27;95110.81;;;6.32;51.23
61814;BME280;57055;-35.296;149.168;2023-06-26T09:19:57;95113.86;;;6.26;51.15
61814;BME280;57055;-35.296;149.168;2023-06-26T09:22:27;95116.00;;;6.50;51.02
61814;BME280;57055;-35.296;149.168;2023-06-26T09:24:56;95133.48;;;6.51;50.94
61814;BME280;57055;-35.296;149.168;2023-06-26T09:27:26;95121.40;;;6.59;50.46
61814;BME280;57055;-35.296;149.168;2023-06-26T09:29:56;95137.39;;;6.57;50.76
61814;BME280;57055;-35.296;149.168;2023-06-26T09:32:25;95133.47;;;6.31;50.88
61814;BME280;57055;-35.296;149.168;2023-06-26T09:34:55;95144.78;;;6.25;50.94
61814;BME280;57055;-35.296;149.168;2023-06-26T09:37:23;95151.18;;;6.20;51.10
61814;BME280;57055;-35.296;149.168;2023-06-26T09:39:53;95160.93;;;6.53;52.71
61814;BME280;57055;-35.296;149.168;2023-06-26T09:42:22;95162.91;;;6.14;54.28
61814;BME280;57055;-35.296;149.168;2023-06-26T09:44:52;95160.99;;;5.89;54.90
61814;BME280;57055;-35.296;149.168;2023-06-26T09:47:21;95164.92;;;6.12;55.06
61814;BME280;57055;-35.296;149.168;2023-06-26T09:49:51;95174.68;;;6.09;55.18
61814;BME280;57055;-35.296;149.168;2023-06-26T09:52:19;95172.89;;;5.65;55.25
61814;BME280;57055;-35.296;149.168;2023-06-26T09:54:48;95178.55;;;6.15;55.35
61814;BME280;57055;-35.296;149.168;2023-06-26T09:57:18;95172.28;;;5.89;55.51
61814;BME280;57055;-35.296;149.168;2023-06-26T09:59:47;95172.40;;;6.21;55.33
61814;BME280;57055;-35.296;149.168;2023-06-26T10:02:17;95164.61;;;5.97;54.04
61814;BME280;57055;-35.296;149.168;2023-06-26T10:04:46;95170.73;;;6.38;54.30
61814;BME280;57055;-35.296;149.168;2023-06-26T10:07:15;95177.00;;;6.44;53.34
61814;BME280;57055;-35.296;149.168;2023-06-26T10:09:45;95173.57;;;6.15;53.39
61814;BME280;57055;-35.296;149.168;2023-06-26T10:12:19;95159.05;;;6.32;53.54
61814;BME280;57055;-35.296;149.168;2023-06-26T10:14:53;95167.94;;;6.23;53.79
61814;BME280;57055;-35.296;149.168;2023-06-26T10:17:28;95175.50;;;5.91;53.81
61814;BME280;57055;-35.296;149.168;2023-06-26T10:19:59;95176.89;;;6.25;53.58
61814;BME280;57055;-35.296;149.168;2023-06-26T10:22:36;95187.96;;;6.28;52.44
61814;BME280;57055;-35.296;149.168;2023-06-26T10:25:07;95194.20;;;6.43;52.17
61814;BME280;57055;-35.296;149.168;2023-06-26T10:27:45;95179.24;;;6.49;52.32
61814;BME280;57055;-35.296;149.168;2023-06-26T10:30:19;95177.09;;;6.61;52.00
61814;BME280;57055;-35.296;149.168;2023-06-26T10:32:52;95161.20;;;6.44;51.75
61814;BME280;57055;-35.296;149.168;2023-06-26T10:35:22;95160.09;;;6.61;51.54
61814;BME280;57055;-35.296;149.168;2023-06-26T10:37:52;95155.73;;;6.35;51.68
61814;BME280;57055;-35.296;149.168;2023-06-26T10:40:39;95155.16;;;6.73;51.23
61814;BME280;57055;-35.296;149.168;2023-06-26T10:43:09;95144.55;;;6.68;51.29
61814;BME280;57055;-35.296;149.168;2023-06-26T10:45:44;95135.62;;;6.32;51.56
61814;BME280;57055;-35.296;149.168;2023-06-26T10:48:15;95150.60;;;6.49;51.88
61814;BME280;57055;-35.296;149.168;2023-06-26T10:50:48;95168.86;;;6.48;51.88
61814;BME280;57055;-35.296;149.168;2023-06-26T10:53:23;95177.93;;;6.59;51.28
61814;BME280;57055;-35.296;149.168;2023-06-26T10:55:55;95191.85;;;6.42;51.00
61814;BME280;57055;-35.296;149.168;2023-06-26T10:58:30;95189.41;;;6.59;51.16
61814;BME280;57055;-35.296;149.168;2023-06-26T11:01:20;95197.32;;;6.57;51.35
61814;BME280;57055;-35.296;149.168;2023-06-26T11:04:03;95206.12;;;6.67;51.07
61814;BME280;57055;-35.296;149.168;2023-06-26T11:06:34;95212.71;;;6.58;51.27
61814;BME280;57055;-35.296;149.168;2023-06-26T11:09:08;95226.20;;;6.60;51.49
61814;BME280;57055;-35.296;149.168;2023-06-26T11:12:10;95241.77;;;6.40;51.65
61814;BME280;57055;-35.296;149.168;2023-06-26T11:14:39;95247.58;;;6.59;51.94
61814;BME280;57055;-35.296;149.168;2023-06-26T11:17:08;95227.60;;;6.50;52.03
61814;BME280;57055;-35.296;149.168;2023-06-26T11:19:37;95226.17;;;6.33;52.08
61814;BME280;57055;-35.296;149.168;2023-06-26T11:22:13;95237.80;;;6.78;52.19
61814;BME280;57055;-35.296;149.168;2023-06-26T11:24:44;95245.24;;;6.44;52.33
61814;BME280;57055;-35.296;149.168;2023-06-26T11:27:14;95250.85;;;6.44;52.42
61814;BME280;57055;-35.296;149.168;2023-06-26T11:29:48;95272.78;;;6.38;52.57
61814;BME280;57055;-35.296;149.168;2023-06-26T11:32:17;95271.95;;;6.26;53.06
61814;BME280;57055;-35.296;149.168;2023-06-26T11:34:48;95290.01;;;6.18;53.48
61814;BME280;57055;-35.296;149.168;2023-06-26T11:37:19;95322.93;;;6.09;53.90
61814;BME280;57055;-35.296;149.168;2023-06-26T11:39:48;95340.17;;;6.33;54.06
61814;BME280;57055;-35.296;149.168;2023-06-26T11:42:17;95335.60;;;6.08;54.06
61814;BME280;57055;-35.296;149.168;2023-06-26T11:44:46;95316.24;;;6.05;54.17
61814;BME280;57055;-35.296;149.168;2023-06-26T11:47:16;95317.24;;;6.03;54.07
61814;BME280;57055;-35.296;149.168;2023-06-26T11:49:46;95313.98;;;6.08;54.12
61814;BME280;57055;-35.296;149.168;2023-06-26T11:52:16;95308.73;;;6.10;53.87
61814;BME280;57055;-35.296;149.168;2023-06-26T11:54:45;95297.01;;;6.43;53.84
61814;BME280;57055;-35.296;149.168;2023-06-26T11:57:15;95315.13;;;6.20;53.88
61814;BME280;57055;-35.296;149.168;2023-06-26T11:59:44;95301.10;;;6.19;53.99
61814;BME280;57055;-35.296;149.168;2023-06-26T12:02:14;95306.92;;;6.20;53.97
61814;BME280;57055;-35.296;149.168;2023-06-26T12:04:44;95319.87;;;6.41;54.26
61814;BME280;57055;-35.296;149.168;2023-06-26T12:07:14;95317.08;;;6.38;54.39
61814;BME280;57055;-35.296;149.168;2023-06-26T12:09:45;95325.34;;;6.33;54.53
61814;BME280;57055;-35.296;149.168;2023-06-26T12:12:16;95317.15;;;6.12;54.15
61814;BME280;57055;-35.296;149.168;2023-06-26T12:14:46;95318.43;;;6.41;54.08
61814;BME280;57055;-35.296;149.168;2023-06-26T12:17:15;95333.13;;;6.40;54.16
61814;BME280;57055;-35.296;149.168;2023-06-26T12:19:46;95347.68;;;6.38;54.32
61814;BME280;57055;-35.296;149.168;2023-06-26T12:22:16;95353.65;;;6.36;54.21
61814;BME280;57055;-35.296;149.168;2023-06-26T12:24:46;95371.41;;;6.17;54.00
61814;BME280;57055;-35.296;149.168;2023-06-26T12:27:18;95354.03;;;6.17;54.03
61814;BME280;57055;-35.296;149.168;2023-06-26T12:29:51;95341.08;;;6.43;54.10
61814;BME280;57055;-35.296;149.168;2023-06-26T12:32:23;95336.30;;;6.11;54.17
61814;BME280;57055;-35.296;149.168;2023-06-26T12:34:52;95342.09;;;6.11;54.09
61814;BME280;57055;-35.296;149.168;2023-06-26T12:37:21;95354.71;;;6.13;54.09
61814;BME280;57055;-35.296;149.168;2023-06-26T12:39:51;95359.74;;;6.37;54.36
61814;BME280;57055;-35.296;149.168;2023-06-26T12:42:22;95356.46;;;6.35;54.40
61814;BME280;57055;-35.296;149.168;2023-06-26T12:44:52;95354.50;;;6.13;54.40
61814;BME280;57055;-35.296;149.168;2023-06-26T12:47:26;95334.39;;;6.13;54.40
61814;BME280;57055;-35.296;149.168;2023-06-26T12:49:56;95327.51;;;6.15;54.30
61814;BME280;57055;-35.296;149.168;2023-06-26T12:52:24;95333.37;;;5.98;54.39
61814;BME280;57055;-35.296;149.168;2023-06-26T12:54:55;95341.06;;;6.01;54.21